Aberdeen, OH

9:56 AM EDT on September 30, 2014 (GMT -0400)
Cincinnati-Northern KY International | Change Station
CLOSE
Current Station
Airport
Location: Covington,
Elevation: 876 ft
Nearby Weather Stations

Elev 876 ft 39.04 °N, 84.67 °W | Updated 1 hour ago

Clear
Clear
60 °F
Feels Like 60 °F
N
0
Wind Variable Wind from North

Today
High -- | Low -- °F
--% Chance of Precip.
Yesterday
High -- | Low -- °F
Precip. -- in
7:29 AM 7:19 PM
Waxing Crescent, 37% visible
Pressure 29.94 in
Visibility 10.0 miles
Clouds Few 15000 ft
Dew Point 53 °F
Humidity 78%
Rainfall 0.00 in
Snow Depth Not available.
UV 1 out of 12
Pollen 3.50 out of 12
Air Quality Not available.
Flu Activity Not available.
METAR KCVG 301252Z 00000KT 10SM FEW150 16/12 A2995 RMK AO2 SLP136 T01560117

More Conditions Fewer Conditions

Pressure 29.94 in
Visibility 10.0 miles
Clouds Few 15000 ft
Dew Point 53 °F
Humidity 78%
Rainfall 0.00 in
Snow Depth Not available.
UV 1 out of 12
Pollen 3.50 out of 12
Air Quality Not available.
Flu Activity Not available.
METAR KCVG 301252Z 00000KT 10SM FEW150 16/12 A2995 RMK AO2 SLP136 T01560117

More Conditions Fewer Conditions

10-Day Weather Forecast

Almanac

Astronomy

Sep. 30, 2014 Rise Set
Actual Time 7:29 AM EDT 7:19 PM EDT
Civil Twilight 7:03 AM EDT 7:45 PM EDT
Nautical Twilight 6:32 AM EDT 8:16 PM EDT
Astronomical Twilight 6:01 AM EDT 8:47 PM EDT
Moon 1:34 PM EDT 11:51 PM EDT
Length of Visible Light 12h 42m
Length of Day
11h 49m
Tomorrow will be 2m 29s shorter.
Waxing Crescent, 37% of the Moon is Illuminated
Today
Waxing Crescent
Oct 1
First Quarter
Oct 8
Full
Oct 15
Last Quarter
Oct 23
New

Today's Extremes

State Highs State Lows

Community

WunderPhotos

Upload Photos

1,757,636 photos uploaded!

Nearby

Snow Depth

Station Depth Elevation
No new snow has been reported.

Earthquake Activity

City Distance Mag. Time & Date
No recent earthquake activity has been reported nearby.
Minimum magnitude displayed is 2.5.

Coastal Water Temperatures

Place Temperature
No Stations Reporting

Nearby Weather Stations